Map

Track Data

SID SEASON NUMBER BASIN SUBBASIN NAME ISO_TIME NATURE LAT LON WMO_WIND WMO_PRES WMO_AGENCY TRACK_TYPE DIST2LAND LANDFALL IFLAG USA_AGENCY USA_ATCF_ID USA_LAT USA_LON USA_RECORD USA_STATUS USA_WIND USA_PRES USA_SSHS USA_R34_NE USA_R34_SE USA_R34_SW USA_R34_NW USA_R50_NE USA_R50_SE USA_R50_SW USA_R50_NW USA_R64_NE USA_R64_SE USA_R64_SW USA_R64_NW USA_POCI USA_ROCI USA_RMW USA_EYE TOKYO_LAT TOKYO_LON TOKYO_GRADE TOKYO_WIND TOKYO_PRES TOKYO_R50_DIR TOKYO_R50_LONG TOKYO_R50_SHORT TOKYO_R30_DIR TOKYO_R30_LONG TOKYO_R30_SHORT TOKYO_LAND CMA_LAT CMA_LON CMA_CAT CMA_WIND CMA_PRES HKO_LAT HKO_LON HKO_CAT HKO_WIND HKO_PRES NEWDELHI_LAT NEWDELHI_LON NEWDELHI_GRADE NEWDELHI_WIND NEWDELHI_PRES NEWDELHI_CI NEWDELHI_DP NEWDELHI_POCI REUNION_LAT REUNION_LON REUNION_TYPE REUNION_WIND REUNION_PRES REUNION_TNUM REUNION_CI REUNION_RMW REUNION_R34_NE REUNION_R34_SE REUNION_R34_SW REUNION_R34_NW REUNION_R50_NE REUNION_R50_SE REUNION_R50_SW REUNION_R50_NW REUNION_R64_NE REUNION_R64_SE REUNION_R64_SW REUNION_R64_NW BOM_LAT BOM_LON BOM_TYPE BOM_WIND BOM_PRES BOM_TNUM BOM_CI BOM_RMW BOM_R34_NE BOM_R34_SE BOM_R34_SW BOM_R34_NW BOM_R50_NE BOM_R50_SE BOM_R50_SW BOM_R50_NW BOM_R64_NE BOM_R64_SE BOM_R64_SW BOM_R64_NW BOM_ROCI BOM_POCI BOM_EYE BOM_POS_METHOD BOM_PRES_METHOD NADI_LAT NADI_LON NADI_CAT NADI_WIND NADI_PRES WELLINGTON_LAT WELLINGTON_LON WELLINGTON_WIND WELLINGTON_PRES DS824_LAT DS824_LON DS824_STAGE DS824_WIND DS824_PRES TD9636_LAT TD9636_LON TD9636_STAGE TD9636_WIND TD9636_PRES TD9635_LAT TD9635_LON TD9635_WIND TD9635_PRES TD9635_ROCI NEUMANN_LAT NEUMANN_LON NEUMANN_CLASS NEUMANN_WIND NEUMANN_PRES MLC_LAT MLC_LON MLC_CLASS MLC_WIND MLC_PRES USA_GUST BOM_GUST BOM_GUST_PER REUNION_GUST REUNION_GUST_PER USA_SEAHGT USA_SEARAD_NE USA_SEARAD_SE USA_SEARAD_SW USA_SEARAD_NW STORM_SPEED STORM_DIR
1984362S11165 1985 125 SP MM NOT_NAMED 1984-12-26 12:00:00 TS -11.3000 165.000 main 300 300 O___________O_ jtwc_sh SH081985 -11.3000 165.000 XX 20 -5 -11.3000 165.000 TC 20 8 101
1984362S11165 1985 125 SP MM NOT_NAMED 1984-12-26 15:00:00 TS -11.3776 165.417 main 345 345 P___________P_ SH081985 -11.3776 165.417 XX 20 -5 -11.3776 165.417 TC 20 8 104
1984362S11165 1985 125 SP MM NOT_NAMED 1984-12-26 18:00:00 TS -11.5000 165.800 main 368 340 O___________O_ jtwc_sh SH081985 -11.5000 165.800 XX 20 -5 -11.5000 165.800 TC 20 8 115
1984362S11165 1985 125 SP MM NOT_NAMED 1984-12-26 21:00:00 TS -11.7049 166.123 main 340 303 P___________P_ SH081985 -11.7049 166.123 XX 22 -5 -11.7049 166.123 TC 22 8 130
1984362S11165 1985 125 SP MM NOT_NAMED 1984-12-27 00:00:00 TS -12.0000 166.400 main 303 257 O___________O_ jtwc_sh SH081985 -12.0000 166.400 XX 25 -5 -12.0000 166.400 TC 25 9 142
1984362S11165 1985 125 SP MM NOT_NAMED 1984-12-27 03:00:00 TS -12.3775 166.665 main 257 215 P___________P_ SH081985 -12.3775 166.665 XX 25 -5 -12.3775 166.665 TC 25 9 149
1984362S11165 1985 125 SP MM NOT_NAMED 1984-12-27 06:00:00 TS -12.8000 166.900 main 215 176 O___________O_ jtwc_sh SH081985 -12.8000 166.900 XX 25 -5 -12.8000 166.900 TC 25 9 153
1984362S11165 1985 125 SP MM NOT_NAMED 1984-12-27 09:00:00 TS -13.1999 167.100 main 176 144 P___________P_ SH081985 -13.1999 167.100 XX 27 -5 -13.1999 167.100 TC 27 9 154
1984362S11165 1985 125 SP MM NOT_NAMED 1984-12-27 12:00:00 TS -13.6000 167.300 main 144 119 O___________O_ jtwc_sh SH081985 -13.6000 167.300 XX 30 -5 -13.6000 167.300 TC 30 9 152
1984362S11165 1985 125 SP MM NOT_NAMED 1984-12-27 15:00:00 TS -13.9925 167.543 main 119 100 P___________P_ SH081985 -13.9925 167.543 XX 30 -5 -13.9925 167.543 TC 30 9 149
1984362S11165 1985 125 SP MM NOT_NAMED 1984-12-27 18:00:00 TS -14.4000 167.800 main 100 92 O___________O_ jtwc_sh SH081985 -14.4000 167.800 XX 30 -5 -14.4000 167.800 TC 30 10 150
1984362S11165 1985 125 SP MM NOT_NAMED 1984-12-27 21:00:00 TS -14.8424 168.043 main 99 99 P___________P_ SH081985 -14.8424 168.043 XX 30 -5 -14.8424 168.043 TC 30 10 152
1984362S11165 1985 125 SP MM NOT_NAMED 1984-12-28 00:00:00 TS -15.3000 168.300 main 120 100 O___________O_ jtwc_sh SH081985 -15.3000 168.300 XX 30 -5 -15.3000 168.300 TC 30 11 150
1984362S11165 1985 125 SP MM NOT_NAMED 1984-12-28 03:00:00 TS -15.7500 168.585 main 108 101 P___________P_ SH081985 -15.7500 168.585 XX 32 -5 -15.7500 168.585 TC 32 11 147
1984362S11165 1985 125 SP MM NOT_NAMED 1984-12-28 06:00:00 TS -16.2000 168.900 main 117 117 O___________O_ jtwc_sh SH081985 -16.2000 168.900 XX 35 -5 -16.2000 168.900 TC 35 11 146
1984362S11165 1985 125 SP MM NOT_NAMED 1984-12-28 09:00:00 TS -16.6498 169.220 main 149 149 P___________P_ SH081985 -16.6498 169.220 XX 37 -5 -16.6498 169.220 TC 37 11 143
1984362S11165 1985 125 SP MM NOT_NAMED 1984-12-28 12:00:00 TS -17.1000 169.600 main 199 199 O___________O_ jtwc_sh SH081985 -17.1000 169.600 XX 40 -5 -17.1000 169.600 TC 40 12 138
1984362S11165 1985 125 SP MM NOT_NAMED 1984-12-28 15:00:00 TS -17.5575 170.070 main 268 268 P___________P_ SH081985 -17.5575 170.070 XX 42 -5 -17.5575 170.070 TC 42 13 133
1984362S11165 1985 125 SP MM NOT_NAMED 1984-12-28 18:00:00 TS -18.0000 170.600 main 336 336 O___________O_ jtwc_sh SH081985 -18.0000 170.600 XX 45 -5 -18.0000 170.600 TC 45 13 130
1984362S11165 1985 125 SP MM NOT_NAMED 1984-12-28 21:00:00 TS -18.4148 171.135 main 403 403 P___________P_ SH081985 -18.4148 171.135 XX 45 -5 -18.4148 171.135 TC 45 13 127
1984362S11165 1985 125 SP MM NOT_NAMED 1984-12-29 00:00:00 TS -18.8000 171.700 main 480 480 O___________O_ jtwc_sh SH081985 -18.8000 171.700 XX 45 -5 -18.8000 171.700 TC 45 13 125
1984362S11165 1985 125 SP MM NOT_NAMED 1984-12-29 03:00:00 TS -19.1648 172.285 main 533 482 P___________P_ SH081985 -19.1648 172.285 XX 45 -5 -19.1648 172.285 TC 45 13 122
1984362S11165 1985 125 SP MM NOT_NAMED 1984-12-29 06:00:00 TS -19.5000 172.900 main 482 438 O___________O_ jtwc_sh SH081985 -19.5000 172.900 XX 45 -5 -19.5000 172.900 TC 45 13 119
1984362S11165 1985 125 SP MM NOT_NAMED 1984-12-29 09:00:00 TS -19.8148 173.535 main 438 393 P___________P_ SH081985 -19.8148 173.535 XX 42 -5 -19.8148 173.535 TC 42 14 116
1984362S11165 1985 125 SP MM NOT_NAMED 1984-12-29 12:00:00 TS -20.1000 174.200 main 393 359 O___________O_ jtwc_sh SH081985 -20.1000 174.200 XX 40 -5 -20.1000 174.200 TC 40 14 113
1984362S11165 1985 125 SP MM NOT_NAMED 1984-12-29 15:00:00 TS -20.3571 174.878 main 360 331 P___________P_ SH081985 -20.3571 174.878 XX 37 -5 -20.3571 174.878 TC 37 14 111
1984362S11165 1985 125 SP MM NOT_NAMED 1984-12-29 18:00:00 TS -20.6000 175.600 main 331 319 O___________O_ jtwc_sh SH081985 -20.6000 175.600 XX 35 -5 -20.6000 175.600 TC 35 15 109
1984362S11165 1985 125 SP MM NOT_NAMED 1984-12-29 21:00:00 TS -20.8484 176.382 main 316 316 P___________P_ SH081985 -20.8484 176.382 XX 30 -5 -20.8484 176.382 TC 30 16 108
1984362S11165 1985 125 SP MM NOT_NAMED 1984-12-30 00:00:00 TS -21.1000 177.200 main 321 O___________O_ jtwc_sh SH081985 -21.1000 177.200 XX 25 -5 -21.1000 177.200 TC 25 16 108

Digital Typhoon Data and Search

About IBTrACS Database

This database is a web-friendly format of International Best Track Archive for Climate Stewardship (IBTrACS), a global best track data archive curated by NOAA dating back to 1842.

Updated: 2021-12-03